Time;durP1;ratioP1;P1;durP2;ratioP2;P2;SDS_P1;SDS_P2;PMS_P1;PMS_P2;Temp;Humidity;BMP_temperature;BMP_pressure;BME280_temperature;BME280_humidity;BME280_pressure;Samples;Min_cycle;Max_cycle;Signal;HPM_P1;HPM_P2
2022/10/04 00:09:12;;;;;;;4.75;2.08;;;13.00;99.90;;;;;;20959348;28;20272;-38
2022/10/04 00:19:13;;;;;;;3.20;2.13;;;13.00;99.90;;;;;;20961494;28;20121;-39
2022/10/04 00:29:35;;;;;;;7.03;2.58;;;12.90;99.90;;;;;;20956731;28;20036;-39
2022/10/04 00:39:40;;;;;;;3.50;1.75;;;13.00;99.90;;;;;;20961648;28;20808;-40
2022/10/04 00:49:45;;;;;;;5.57;2.53;;;13.00;99.90;;;;;;20955694;28;20130;-38
2022/10/04 00:59:51;;;;;;;9.98;3.95;;;12.90;99.90;;;;;;20956244;28;20540;-39
2022/10/04 01:09:56;;;;;;;4.05;2.60;;;13.00;99.90;;;;;;20951434;28;20514;-38
2022/10/04 01:19:57;;;;;;;4.88;2.42;;;12.90;99.90;;;;;;20951600;28;20494;-40
2022/10/04 01:29:59;;;;;;;7.05;2.95;;;12.70;99.90;;;;;;20957386;28;20074;-39
2022/10/04 01:40:01;;;;;;;5.68;3.38;;;12.60;99.90;;;;;;20956177;28;20060;-40
2022/10/04 01:50:10;;;;;;;4.80;2.92;;;12.60;99.90;;;;;;20952262;28;20086;-39
2022/10/04 02:00:13;;;;;;;4.53;3.03;;;12.50;99.90;;;;;;20953773;28;20519;-38
2022/10/04 02:10:19;;;;;;;3.67;1.80;;;12.30;99.90;;;;;;20955934;28;20074;-39
2022/10/04 02:20:25;;;;;;;7.13;2.45;;;12.20;99.90;;;;;;20950097;28;20121;-39
2022/10/04 02:30:26;;;;;;;4.57;2.88;;;12.10;99.90;;;;;;20949433;28;20205;-38
2022/10/04 02:40:31;;;;;;;7.50;2.80;;;12.00;99.90;;;;;;20950918;28;20109;-39
2022/10/04 02:50:46;;;;;;;4.53;2.55;;;11.90;99.90;;;;;;20961952;28;20080;-39
2022/10/04 03:00:55;;;;;;;8.40;4.60;;;11.80;99.90;;;;;;20958326;28;20923;-39
2022/10/04 03:10:58;;;;;;;5.03;2.90;;;11.70;99.90;;;;;;20943638;28;20175;-39
2022/10/04 03:21:06;;;;;;;17.20;5.45;;;11.70;99.90;;;;;;20946081;28;20117;-39
2022/10/04 03:31:08;;;;;;;8.73;4.05;;;11.60;99.90;;;;;;20943078;28;20127;-39
2022/10/04 03:41:11;;;;;;;8.02;3.70;;;11.50;99.90;;;;;;20949920;28;20056;-39
2022/10/04 03:51:21;;;;;;;13.10;3.80;;;11.40;99.90;;;;;;20944687;28;20076;-39
2022/10/04 04:01:46;;;;;;;6.97;3.00;;;11.30;99.90;;;;;;20944110;28;20333;-39
2022/10/04 04:11:49;;;;;;;5.68;3.10;;;11.30;99.90;;;;;;20951665;28;20755;-40
2022/10/04 04:21:54;;;;;;;4.70;2.38;;;11.20;99.90;;;;;;20946019;28;20085;-40
2022/10/04 04:32:17;;;;;;;3.75;2.75;;;11.10;99.90;;;;;;20941519;28;20659;-40
2022/10/04 04:42:30;;;;;;;4.97;2.58;;;11.10;99.90;;;;;;20967459;28;20062;-40
2022/10/04 04:52:32;;;;;;;9.90;4.13;;;11.00;99.90;;;;;;20946613;28;20660;-40
2022/10/04 05:02:37;;;;;;;6.50;3.70;;;11.00;99.90;;;;;;20970785;28;20502;-40
2022/10/04 05:12:38;;;;;;;7.82;3.75;;;10.90;99.90;;;;;;20964868;28;20891;-40
2022/10/04 05:22:44;;;;;;;9.82;3.58;;;10.90;99.90;;;;;;20955857;28;20428;-40
2022/10/04 05:32:59;;;;;;;7.15;4.15;;;10.90;99.90;;;;;;20956951;28;20542;-40
2022/10/04 05:43:00;;;;;;;10.18;5.70;;;10.90;99.90;;;;;;20954151;28;20076;-40
2022/10/04 05:53:14;;;;;;;10.60;4.28;;;10.80;99.90;;;;;;20915691;28;20131;-40
2022/10/04 06:03:46;;;;;;;7.75;3.72;;;10.90;99.90;;;;;;20978246;28;20303;-39
2022/10/04 06:14:09;;;;;;;7.75;3.83;;;10.90;99.90;;;;;;20935135;28;20829;-40
2022/10/04 06:24:20;;;;;;;7.03;3.50;;;10.90;99.90;;;;;;20940375;28;20141;-39
2022/10/04 06:34:34;;;;;;;6.57;3.53;;;10.70;99.90;;;;;;20943430;28;20093;-39
2022/10/04 06:45:17;;;;;;;6.38;4.18;;;10.60;99.90;;;;;;20947185;28;20730;-39
2022/10/04 06:55:37;;;;;;;9.05;4.00;;;10.70;99.90;;;;;;20947171;28;20122;-39
2022/10/04 07:05:45;;;;;;;8.27;3.60;;;10.80;99.90;;;;;;20931582;28;20855;-39
2022/10/04 07:15:58;;;;;;;7.35;3.80;;;11.00;99.90;;;;;;20942896;28;20140;-40
2022/10/04 07:26:35;;;;;;;7.45;4.00;;;11.10;99.90;;;;;;20950030;28;20140;-40
2022/10/04 07:36:47;;;;;;;10.18;4.40;;;11.40;99.90;;;;;;20929710;28;20583;-40
2022/10/04 07:46:57;;;;;;;8.75;4.10;;;12.00;99.90;;;;;;20950584;28;20051;-39
2022/10/04 07:57:05;;;;;;;6.53;2.88;;;12.30;99.90;;;;;;20905009;28;20281;-39
2022/10/04 08:07:22;;;;;;;8.60;3.78;;;12.40;99.90;;;;;;20934087;28;20354;-39
2022/10/04 08:17:37;;;;;;;5.57;3.28;;;12.50;99.90;;;;;;20966194;28;20056;-39
2022/10/04 08:38:26;;;;;;;8.07;2.67;;;13.20;99.90;;;;;;20946686;28;20132;-39
2022/10/04 08:49:06;;;;;;;20.02;3.25;;;13.50;99.90;;;;;;20948998;28;20190;-39
2022/10/04 08:59:32;;;;;;;4.88;2.13;;;13.60;99.90;;;;;;20946083;28;20902;-39
2022/10/04 09:10:01;;;;;;;2.97;1.80;;;13.80;99.90;;;;;;20943331;28;20041;-39
2022/10/04 09:20:31;;;;;;;5.35;2.20;;;14.10;99.90;;;;;;20935250;28;21903;-39
2022/10/04 09:30:47;;;;;;;10.35;3.45;;;14.20;99.90;;;;;;20946710;28;20528;-39
2022/10/04 09:41:00;;;;;;;9.02;2.88;;;14.40;99.90;;;;;;20949997;28;20309;-39
2022/10/04 09:51:17;;;;;;;4.30;2.83;;;14.70;99.90;;;;;;20940503;28;20703;-38
2022/10/04 10:01:28;;;;;;;9.98;3.15;;;14.90;99.90;;;;;;20937539;28;20079;-38
2022/10/04 10:22:36;;;;;;;5.80;2.33;;;15.30;99.90;;;;;;20980326;28;20683;-38
2022/10/04 10:33:01;;;;;;;3.35;1.58;;;15.40;99.90;;;;;;20968766;28;21268;-38
2022/10/04 10:43:02;;;;;;;4.30;1.98;;;15.70;99.90;;;;;;20961395;28;20857;-38
2022/10/04 10:53:06;;;;;;;5.35;1.75;;;15.90;99.90;;;;;;20937990;28;20079;-38
2022/10/04 11:03:15;;;;;;;7.63;2.28;;;16.20;99.90;;;;;;20931701;28;20086;-38
2022/10/04 11:13:47;;;;;;;3.42;1.70;;;16.60;99.90;;;;;;20930858;28;20632;-38
2022/10/04 11:24:31;;;;;;;4.82;1.52;;;17.00;99.90;;;;;;20933661;28;21834;-39
2022/10/04 11:34:49;;;;;;;5.68;1.83;;;16.90;99.90;;;;;;20936591;28;20067;-38
2022/10/04 11:45:12;;;;;;;5.70;1.98;;;16.90;99.90;;;;;;20933494;28;20356;-38
2022/10/04 11:55:34;;;;;;;5.45;1.83;;;17.30;99.90;;;;;;20951861;28;20078;-38
2022/10/04 12:06:01;;;;;;;3.33;1.67;;;17.20;99.90;;;;;;20948087;28;20889;-38
2022/10/04 12:16:17;;;;;;;2.70;1.13;;;17.50;99.90;;;;;;20944378;28;20444;-38
2022/10/04 12:26:46;;;;;;;3.30;1.77;;;18.70;99.90;;;;;;20950417;28;20137;-39
2022/10/04 12:36:58;;;;;;;3.63;1.75;;;19.40;99.90;;;;;;20961508;28;20961;-39
2022/10/04 12:47:10;;;;;;;3.85;1.67;;;18.80;99.90;;;;;;20949567;28;20036;-39
2022/10/04 12:57:44;;;;;;;3.95;1.70;;;19.70;99.90;;;;;;20978337;28;20097;-39
2022/10/04 13:08:16;;;;;;;3.53;1.85;;;20.00;99.90;;;;;;20945862;28;20927;-39
2022/10/04 13:18:43;;;;;;;2.83;1.70;;;20.30;99.90;;;;;;20948232;28;20146;-39
2022/10/04 13:28:56;;;;;;;3.72;1.35;;;20.80;99.90;;;;;;20954493;28;20040;-39
2022/10/04 13:39:18;;;;;;;3.65;1.92;;;20.30;99.90;;;;;;20968809;28;20453;-39
2022/10/04 13:49:29;;;;;;;4.78;1.70;;;20.50;99.90;;;;;;20964860;28;20446;-39
2022/10/04 13:59:35;;;;;;;4.00;1.80;;;19.60;99.90;;;;;;20965987;28;20061;-39
2022/10/04 14:10:04;;;;;;;3.30;1.57;;;19.60;99.90;;;;;;20961020;28;20040;-39
2022/10/04 14:20:34;;;;;;;4.93;2.10;;;19.70;99.90;;;;;;20957494;28;20487;-39
2022/10/04 14:30:44;;;;;;;3.22;1.75;;;20.40;99.90;;;;;;20929719;28;20228;-38
2022/10/04 14:40:57;;;;;;;4.93;1.95;;;19.00;99.90;;;;;;20923720;28;20142;-38
2022/10/04 14:51:12;;;;;;;3.63;1.23;;;19.00;99.90;;;;;;20931338;28;20032;-38
2022/10/04 15:01:28;;;;;;;3.25;1.80;;;19.00;99.90;;;;;;20927129;28;20162;-38
2022/10/04 15:11:38;;;;;;;2.38;0.77;;;18.60;99.90;;;;;;20922260;28;20044;-38
2022/10/04 15:21:54;;;;;;;5.20;1.52;;;18.40;99.90;;;;;;20923519;28;20704;-38
2022/10/04 15:32:17;;;;;;;4.28;0.90;;;18.20;99.90;;;;;;20930141;28;20155;-38
2022/10/04 15:42:33;;;;;;;3.42;1.42;;;17.80;99.90;;;;;;20930065;28;20531;-38
2022/10/04 15:52:47;;;;;;;3.15;1.65;;;17.80;99.90;;;;;;20904372;28;20406;-39
2022/10/04 16:03:04;;;;;;;6.55;2.55;;;18.00;99.90;;;;;;20771635;28;20156;-39
2022/10/04 16:13:14;;;;;;;2.40;1.20;;;18.00;99.90;;;;;;20782593;28;20501;-38
2022/10/04 16:23:26;;;;;;;1.92;0.60;;;17.90;99.90;;;;;;20793588;28;20029;-38
2022/10/04 16:33:50;;;;;;;2.75;1.83;;;17.70;99.90;;;;;;20800834;28;20111;-38
2022/10/04 16:43:53;;;;;;;2.45;1.20;;;17.60;99.90;;;;;;20821301;28;20854;-39
2022/10/04 16:54:13;;;;;;;2.38;1.23;;;17.60;99.90;;;;;;20822064;28;20505;-38
2022/10/04 17:04:35;;;;;;;2.50;0.90;;;17.30;99.90;;;;;;20947127;28;20064;-38
2022/10/04 17:14:56;;;;;;;2.35;0.95;;;17.30;99.90;;;;;;20938580;28;20773;-38
2022/10/04 17:25:18;;;;;;;2.15;0.75;;;17.20;99.90;;;;;;20944954;28;20317;-38
2022/10/04 17:35:53;;;;;;;2.00;1.05;;;17.10;99.90;;;;;;20949768;28;20040;-38
2022/10/04 17:46:10;;;;;;;3.30;1.25;;;17.20;99.90;;;;;;20955182;28;20820;-38
2022/10/04 17:56:20;;;;;;;4.25;2.30;;;17.00;99.90;;;;;;20954310;28;20066;-38
2022/10/04 18:06:28;;;;;;;4.82;2.30;;;16.90;99.90;;;;;;20955010;28;20036;-38
2022/10/04 18:16:56;;;;;;;2.70;1.47;;;17.00;99.90;;;;;;20921960;28;20620;-38
2022/10/04 18:27:03;;;;;;;2.60;1.30;;;16.90;99.90;;;;;;20927688;28;21869;-38
2022/10/04 18:37:19;;;;;;;4.05;1.35;;;16.90;99.90;;;;;;20930969;28;20131;-38
2022/10/04 18:47:30;;;;;;;2.53;0.95;;;16.80;99.90;;;;;;20935359;28;20121;-38
2022/10/04 19:08:14;;;;;;;2.60;1.35;;;16.80;99.90;;;;;;20949034;28;21915;-38
2022/10/04 19:18:26;;;;;;;2.17;1.20;;;16.80;99.90;;;;;;20946018;28;20052;-38
2022/10/04 19:28:31;;;;;;;3.83;1.60;;;16.90;99.90;;;;;;20923879;28;20519;-39
2022/10/04 19:38:39;;;;;;;2.50;1.40;;;16.80;99.90;;;;;;20935084;28;20231;-38
2022/10/04 19:48:50;;;;;;;3.50;1.60;;;16.70;99.90;;;;;;20922770;28;20721;-39
2022/10/04 19:59:04;;;;;;;3.03;1.35;;;16.70;99.90;;;;;;20937377;28;20186;-38
2022/10/04 20:09:28;;;;;;;2.67;1.38;;;16.60;99.90;;;;;;20937452;28;20074;-38
2022/10/04 20:19:30;;;;;;;4.10;1.27;;;16.60;99.90;;;;;;20956933;28;20064;-38
2022/10/04 20:29:37;;;;;;;1.52;0.82;;;16.50;99.90;;;;;;20960069;28;20045;-38
2022/10/04 20:39:47;;;;;;;1.83;1.27;;;16.60;99.90;;;;;;20951989;28;20150;-38
2022/10/04 20:49:50;;;;;;;2.70;1.27;;;16.50;99.90;;;;;;20948809;28;20091;-38
2022/10/04 20:59:54;;;;;;;2.25;1.27;;;16.40;99.90;;;;;;20944640;28;20074;-38
2022/10/04 21:10:13;;;;;;;7.78;3.25;;;16.40;99.90;;;;;;20939964;28;20743;-38
2022/10/04 21:20:47;;;;;;;2.30;1.20;;;16.30;99.90;;;;;;20927449;28;20170;-38
2022/10/04 21:30:48;;;;;;;3.20;1.45;;;16.30;99.90;;;;;;20933677;28;20961;-38
2022/10/04 21:40:49;;;;;;;2.75;0.77;;;16.20;99.90;;;;;;20934543;28;20539;-38
2022/10/04 21:50:51;;;;;;;1.90;0.93;;;16.20;99.90;;;;;;20938975;28;20036;-38
2022/10/04 22:00:52;;;;;;;2.45;1.08;;;16.20;99.90;;;;;;20937197;28;20129;-38
2022/10/04 22:10:53;;;;;;;2.40;1.52;;;16.20;99.90;;;;;;20927379;28;21085;-38
2022/10/04 22:20:54;;;;;;;3.55;1.30;;;16.20;99.90;;;;;;20931221;28;21671;-38
2022/10/04 22:30:56;;;;;;;5.40;1.50;;;16.10;99.90;;;;;;20929658;28;20041;-38
2022/10/04 22:40:59;;;;;;;3.58;1.42;;;16.00;99.90;;;;;;20930441;28;20315;-38
2022/10/04 22:51:00;;;;;;;4.72;1.33;;;16.00;99.90;;;;;;20930047;28;20095;-38
2022/10/04 23:01:01;;;;;;;3.83;1.75;;;15.90;99.90;;;;;;20935517;28;20158;-38
2022/10/04 23:11:02;;;;;;;3.42;1.27;;;16.00;99.90;;;;;;20928956;28;20032;-39
2022/10/04 23:21:23;;;;;;;3.00;1.38;;;16.00;99.90;;;;;;20922781;28;20048;-38
2022/10/04 23:31:26;;;;;;;3.40;1.75;;;15.90;99.90;;;;;;20921317;28;20704;-38
2022/10/04 23:41:27;;;;;;;10.23;1.45;;;15.90;99.90;;;;;;20930608;28;20102;-38
2022/10/04 23:51:28;;;;;;;2.13;0.80;;;15.80;99.90;;;;;;20927670;28;20923;-38
